createdAt,value
2023-02-11T00:02:09.926Z,2.00
2023-02-11T00:04:41.799Z,2.00
2023-02-11T00:07:13.616Z,1.90
2023-02-11T00:09:45.448Z,1.90
2023-02-11T00:12:19.604Z,1.90
2023-02-11T00:14:52.489Z,1.90
2023-02-11T00:17:24.376Z,1.80
2023-02-11T00:19:56.309Z,1.90
2023-02-11T00:22:28.354Z,1.80
2023-02-11T00:25:00.334Z,1.80
2023-02-11T00:27:32.199Z,1.80
2023-02-11T00:30:05.346Z,1.80
2023-02-11T00:32:37.584Z,1.90
2023-02-11T00:35:10.472Z,1.80
2023-02-11T00:37:44.455Z,1.80
2023-02-11T00:40:16.478Z,1.80
2023-02-11T00:42:48.399Z,1.80
2023-02-11T00:45:21.324Z,1.80
2023-02-11T00:47:53.318Z,1.80
2023-02-11T00:50:25.504Z,1.80
2023-02-11T00:52:57.434Z,1.80
2023-02-11T00:55:29.320Z,1.80
2023-02-11T00:58:01.723Z,1.70
2023-02-11T01:00:33.624Z,1.70
2023-02-11T01:03:05.629Z,1.80
2023-02-11T01:05:37.604Z,1.70
2023-02-11T01:08:09.592Z,1.70
2023-02-11T01:10:41.678Z,1.70
2023-02-11T01:13:13.576Z,1.70
2023-02-11T01:15:45.413Z,1.70
2023-02-11T01:18:17.419Z,1.70
2023-02-11T01:20:49.268Z,1.70
2023-02-11T01:23:22.199Z,1.70
2023-02-11T01:25:54.550Z,1.70
2023-02-11T01:28:28.701Z,1.70
2023-02-11T01:31:02.432Z,1.70
2023-02-11T01:33:34.327Z,1.70
2023-02-11T01:36:07.112Z,1.60
2023-02-11T01:38:40.978Z,1.70
2023-02-11T01:41:14.899Z,1.60
2023-02-11T01:43:49.929Z,1.60
2023-02-11T01:46:36.151Z,1.50
2023-02-11T01:49:12.491Z,1.40
2023-02-11T01:51:46.013Z,1.40
2023-02-11T01:54:40.696Z,1.40
2023-02-11T01:57:27.528Z,1.40
2023-02-11T02:00:11.826Z,1.30
2023-02-11T02:03:00.818Z,1.30
2023-02-11T02:05:55.710Z,1.20
2023-02-11T02:08:50.280Z,1.20
2023-02-11T02:11:22.577Z,1.20
2023-02-11T02:13:54.436Z,1.20
2023-02-11T02:16:34.793Z,1.20
2023-02-11T02:19:31.536Z,1.20
2023-02-11T02:22:22.296Z,1.20
2023-02-11T02:25:25.134Z,1.20
2023-02-11T02:28:29.651Z,1.20
2023-02-11T02:31:01.736Z,1.20
2023-02-11T02:33:48.432Z,1.20
2023-02-11T02:36:48.435Z,1.10
2023-02-11T02:39:31.612Z,1.20
2023-02-11T02:42:04.972Z,1.20
2023-02-11T02:44:36.787Z,1.20
2023-02-11T02:47:08.612Z,1.20
2023-02-11T02:49:40.667Z,1.30
2023-02-11T02:52:42.271Z,1.30
2023-02-11T02:55:40.751Z,1.20
2023-02-11T02:58:35.569Z,1.20
2023-02-11T03:01:33.943Z,1.20
2023-02-11T03:04:29.537Z,1.20
2023-02-11T03:07:12.744Z,1.10
2023-02-11T03:09:58.475Z,1.20
2023-02-11T03:12:32.548Z,1.10
2023-02-11T03:15:06.845Z,1.20
2023-02-11T03:17:42.804Z,1.10
2023-02-11T03:20:17.643Z,1.10
2023-02-11T03:22:55.698Z,1.10
2023-02-11T03:25:34.725Z,1.00
2023-02-11T03:28:24.826Z,0.90
2023-02-11T03:31:20.468Z,0.80
2023-02-11T03:33:59.422Z,0.80
2023-02-11T03:36:39.648Z,0.60
2023-02-11T03:39:14.003Z,0.50
2023-02-11T03:41:48.618Z,0.40
2023-02-11T03:44:23.121Z,0.40
2023-02-11T03:46:56.392Z,0.30
2023-02-11T03:49:30.260Z,0.30
2023-02-11T03:52:03.821Z,0.20
2023-02-11T03:54:35.858Z,0.10
2023-02-11T03:57:07.901Z,0.10
2023-02-11T03:59:59.327Z,0.00
2023-02-11T04:02:34.561Z,0.00
2023-02-11T04:05:08.377Z,0.00
2023-02-11T04:07:40.377Z,0.00
2023-02-11T04:10:13.083Z,0.00
2023-02-11T04:12:44.986Z,0.00
2023-02-11T04:15:16.920Z,0.00
2023-02-11T04:17:48.942Z,0.00
2023-02-11T04:20:20.999Z,-0.10
2023-02-11T04:22:52.859Z,-0.10
2023-02-11T04:25:26.001Z,0.00
2023-02-11T04:27:57.878Z,-0.10
2023-02-11T04:30:29.783Z,-0.10
2023-02-11T04:33:01.657Z,-0.20
2023-02-11T04:35:33.534Z,-0.30
2023-02-11T04:38:05.435Z,-0.30
2023-02-11T04:40:37.283Z,-0.40
2023-02-11T04:43:09.376Z,-0.30
2023-02-11T04:45:41.282Z,-0.20
2023-02-11T04:48:13.181Z,-0.20
2023-02-11T04:50:45.032Z,-0.20
2023-02-11T04:53:16.881Z,-0.10
2023-02-11T04:55:50.853Z,-0.20
2023-02-11T04:58:24.590Z,-0.20
2023-02-11T05:00:56.621Z,-0.40
2023-02-11T05:03:28.597Z,-0.40
2023-02-11T05:06:00.571Z,-0.40
2023-02-11T05:08:32.586Z,-0.40
2023-02-11T05:11:05.025Z,-0.40
2023-02-11T05:13:37.067Z,-0.30
2023-02-11T05:16:08.981Z,-0.40
2023-02-11T05:18:42.283Z,-0.40
2023-02-11T05:21:16.377Z,-0.40
2023-02-11T05:23:48.644Z,-0.40
2023-02-11T05:26:20.502Z,-0.50
2023-02-11T05:28:52.941Z,-0.40
2023-02-11T05:31:24.900Z,-0.40
2023-02-11T05:33:56.743Z,-0.40
2023-02-11T05:36:28.538Z,-0.30
2023-02-11T05:39:00.365Z,-0.30
2023-02-11T05:41:32.294Z,-0.20
2023-02-11T05:44:04.328Z,-0.20
2023-02-11T05:46:36.527Z,-0.10
2023-02-11T05:49:08.400Z,0.00
2023-02-11T05:51:40.282Z,0.00
2023-02-11T05:54:12.277Z,0.00
2023-02-11T05:56:44.995Z,0.00
2023-02-11T05:59:17.022Z,-0.10
2023-02-11T06:01:48.815Z,-0.20
2023-02-11T06:04:20.697Z,-0.20
2023-02-11T06:06:52.536Z,-0.20
2023-02-11T06:09:24.404Z,-0.20
2023-02-11T06:11:56.322Z,-0.20
2023-02-11T06:14:28.232Z,-0.20
2023-02-11T06:17:00.448Z,-0.10
2023-02-11T06:19:32.297Z,-0.10
2023-02-11T06:22:04.773Z,-0.10
2023-02-11T06:24:59.804Z,-0.10
2023-02-11T06:27:30.185Z,-0.20
2023-02-11T06:30:02.130Z,-0.20
2023-02-11T06:32:49.552Z,-0.20
2023-02-11T06:35:21.559Z,-0.20
2023-02-11T06:37:54.222Z,-0.20
2023-02-11T06:40:26.222Z,-0.20
2023-02-11T06:42:58.054Z,-0.10
2023-02-11T06:45:29.929Z,-0.10
2023-02-11T06:48:01.872Z,0.00
2023-02-11T06:50:33.866Z,0.10
2023-02-11T06:53:05.773Z,0.20
2023-02-11T06:55:37.626Z,0.20
2023-02-11T06:58:09.536Z,0.20
2023-02-11T07:00:41.438Z,0.50
2023-02-11T07:03:13.380Z,1.20
2023-02-11T07:05:45.367Z,2.20
2023-02-11T07:08:17.237Z,2.80
2023-02-11T07:10:49.119Z,3.50
2023-02-11T07:13:20.973Z,4.00
2023-02-11T07:15:53.227Z,4.30
2023-02-11T07:18:25.228Z,4.40
2023-02-11T07:20:57.089Z,4.20
2023-02-11T07:23:28.999Z,4.10
2023-02-11T07:26:09.353Z,4.20
2023-02-11T07:28:41.842Z,4.50
2023-02-11T07:31:16.533Z,4.80
2023-02-11T07:33:48.578Z,5.20
2023-02-11T07:36:21.077Z,5.50
2023-02-11T07:38:52.965Z,5.40
2023-02-11T07:41:26.156Z,5.30
2023-02-11T07:43:58.146Z,5.40
2023-02-11T07:46:30.088Z,5.60
2023-02-11T07:49:01.958Z,5.90
2023-02-11T07:51:33.796Z,6.20
2023-02-11T07:54:05.720Z,6.50
2023-02-11T07:56:37.635Z,6.60
2023-02-11T07:59:10.758Z,6.80
2023-02-11T08:01:42.649Z,7.30
2023-02-11T08:04:14.588Z,7.80
2023-02-11T08:06:46.480Z,8.20
2023-02-11T08:09:18.808Z,8.00
2023-02-11T08:11:50.656Z,7.90
2023-02-11T08:14:22.579Z,7.70
2023-02-11T08:16:54.470Z,7.40
2023-02-11T08:19:27.491Z,7.20
2023-02-11T08:22:01.279Z,7.00
2023-02-11T08:24:33.271Z,7.00
2023-02-11T08:27:05.206Z,7.20
2023-02-11T08:29:37.112Z,7.20
2023-02-11T08:32:09.247Z,7.20
2023-02-11T08:34:41.097Z,7.00
2023-02-11T08:37:13.001Z,7.00
2023-02-11T08:39:47.254Z,7.00
2023-02-11T08:42:19.289Z,7.10
2023-02-11T08:44:51.204Z,7.00
2023-02-11T08:47:23.221Z,7.10
2023-02-11T08:49:55.128Z,7.30
2023-02-11T08:52:27.140Z,7.50
2023-02-11T08:54:59.188Z,7.40
2023-02-11T08:57:31.252Z,7.30
2023-02-11T09:00:03.805Z,7.00
2023-02-11T09:02:35.690Z,6.90
2023-02-11T09:05:08.129Z,7.00
2023-02-11T09:07:40.374Z,7.10
2023-02-11T09:10:12.394Z,6.80
2023-02-11T09:12:44.431Z,6.80
2023-02-11T09:15:16.697Z,6.70
2023-02-11T09:17:48.542Z,6.60
2023-02-11T09:20:21.592Z,6.50
2023-02-11T09:22:54.967Z,6.50
2023-02-11T09:25:26.880Z,6.50
2023-02-11T09:27:58.781Z,6.30
2023-02-11T09:30:30.751Z,6.50
2023-02-11T09:33:03.325Z,6.60
2023-02-11T09:35:35.255Z,6.70
2023-02-11T09:38:07.181Z,7.00
2023-02-11T09:40:44.177Z,6.90
2023-02-11T09:43:36.324Z,6.90
2023-02-11T09:46:15.398Z,6.90
2023-02-11T09:48:50.546Z,6.70
2023-02-11T09:51:39.361Z,6.60
2023-02-11T09:54:30.811Z,6.70
2023-02-11T09:57:02.975Z,6.80
2023-02-11T09:59:35.020Z,6.80
2023-02-11T10:02:23.207Z,7.00
2023-02-11T10:05:21.754Z,7.30
2023-02-11T10:08:15.842Z,7.60
2023-02-11T10:10:54.211Z,7.40
2023-02-11T10:13:35.264Z,7.20
2023-02-11T10:16:41.223Z,7.50
2023-02-11T10:19:32.100Z,7.90
2023-02-11T10:22:10.366Z,8.30
2023-02-11T10:24:51.797Z,8.20
2023-02-11T10:27:35.732Z,8.20
2023-02-11T10:30:23.593Z,8.00
2023-02-11T10:33:12.940Z,7.90
2023-02-11T10:35:45.740Z,7.60
2023-02-11T10:38:17.633Z,7.50
2023-02-11T10:40:49.977Z,7.30
2023-02-11T10:43:26.816Z,7.50
2023-02-11T10:46:01.169Z,7.80
2023-02-11T10:48:51.885Z,7.90
2023-02-11T10:51:34.423Z,7.70
2023-02-11T10:54:08.189Z,7.80
2023-02-11T10:56:52.151Z,8.00
2023-02-11T10:59:33.095Z,7.90
2023-02-11T11:02:32.148Z,7.70
2023-02-11T11:05:20.180Z,7.70
2023-02-11T11:07:58.361Z,7.60
2023-02-11T11:10:36.076Z,7.60
2023-02-11T11:13:24.676Z,7.60
2023-02-11T11:16:14.655Z,7.60
2023-02-11T11:18:49.504Z,7.80
2023-02-11T11:21:35.461Z,7.80
2023-02-11T11:24:35.267Z,8.20
2023-02-11T11:27:07.912Z,8.60
2023-02-11T11:29:53.521Z,8.90
2023-02-11T11:32:32.368Z,8.60
2023-02-11T11:35:21.271Z,8.50
2023-02-11T11:37:55.918Z,8.60
2023-02-11T11:40:33.261Z,8.40
2023-02-11T11:43:14.217Z,8.20
2023-02-11T11:46:22.600Z,8.20
2023-02-11T11:49:00.812Z,8.20
2023-02-11T11:51:33.846Z,8.00
2023-02-11T11:54:13.504Z,8.00
2023-02-11T11:56:59.860Z,7.90
2023-02-11T11:59:32.516Z,7.90
2023-02-11T12:02:35.463Z,7.90
2023-02-11T12:05:10.852Z,8.10
2023-02-11T12:07:55.342Z,7.90
2023-02-11T12:10:56.652Z,7.80
2023-02-11T12:13:47.365Z,7.80
2023-02-11T12:16:34.720Z,7.90
2023-02-11T12:19:33.972Z,8.00
2023-02-11T12:22:27.413Z,8.00
2023-02-11T12:25:25.065Z,8.00
2023-02-11T12:28:01.490Z,7.90
2023-02-11T12:31:33.140Z,7.80
2023-02-11T12:34:27.957Z,7.70
2023-02-11T12:37:25.340Z,7.70
2023-02-11T12:40:08.832Z,7.80
2023-02-11T12:43:17.677Z,7.90
2023-02-11T12:46:27.941Z,8.10
2023-02-11T12:49:23.709Z,8.40
2023-02-11T12:52:27.181Z,8.50
2023-02-11T12:55:07.965Z,8.80
2023-02-11T12:57:43.209Z,8.90
2023-02-11T13:00:45.088Z,9.00
2023-02-11T13:03:25.609Z,9.00
2023-02-11T13:06:06.503Z,9.10
2023-02-11T13:08:46.809Z,9.20
2023-02-11T13:11:41.304Z,9.10
2023-02-11T13:14:22.222Z,9.00
2023-02-11T13:16:55.196Z,9.10
2023-02-11T13:19:27.532Z,9.20
2023-02-11T13:22:20.082Z,9.20
2023-02-11T13:25:23.445Z,9.30
2023-02-11T13:28:12.385Z,9.50
2023-02-11T13:30:51.561Z,9.50
2023-02-11T13:33:43.266Z,9.50
2023-02-11T13:36:17.993Z,9.60
2023-02-11T13:38:59.898Z,9.60
2023-02-11T13:41:39.500Z,9.60
2023-02-11T13:44:11.408Z,9.60
2023-02-11T13:46:55.047Z,9.70
2023-02-11T13:49:41.378Z,9.70
2023-02-11T13:52:27.553Z,9.80
2023-02-11T13:55:09.312Z,9.90
2023-02-11T13:57:43.488Z,10.00
2023-02-11T14:00:34.010Z,10.00
2023-02-11T14:03:30.681Z,10.10
2023-02-11T14:06:27.633Z,10.20
2023-02-11T14:09:08.893Z,10.30
2023-02-11T14:11:40.887Z,10.30
2023-02-11T14:14:32.052Z,10.30
2023-02-11T14:17:07.242Z,10.30
2023-02-11T14:19:44.910Z,10.40
2023-02-11T14:22:29.816Z,10.40
2023-02-11T14:25:04.678Z,10.50
2023-02-11T14:27:41.185Z,10.60
2023-02-11T14:30:59.877Z,10.70
2023-02-11T14:33:40.886Z,10.70
2023-02-11T14:36:43.593Z,10.50
2023-02-11T14:39:42.742Z,10.40
2023-02-11T14:42:20.794Z,10.40
2023-02-11T14:44:55.932Z,10.50
2023-02-11T14:47:35.647Z,10.50
2023-02-11T14:50:14.387Z,10.60
2023-02-11T14:52:47.148Z,10.60
2023-02-11T14:55:33.226Z,10.60
2023-02-11T14:58:14.650Z,10.60
2023-02-11T15:00:56.765Z,10.60
2023-02-11T15:03:40.627Z,10.60
2023-02-11T15:06:22.220Z,10.60
2023-02-11T15:09:06.775Z,10.60
2023-02-11T15:11:41.060Z,10.60
2023-02-11T15:14:25.290Z,10.50
2023-02-11T15:17:01.122Z,10.40
2023-02-11T15:19:35.951Z,10.40
2023-02-11T15:22:36.836Z,10.40
2023-02-11T15:25:19.476Z,10.30
2023-02-11T15:27:55.294Z,10.20
2023-02-11T15:30:31.837Z,10.10
2023-02-11T15:33:06.864Z,10.00
2023-02-11T15:35:41.233Z,9.90
2023-02-11T15:38:14.528Z,9.80
2023-02-11T15:41:01.018Z,9.70
2023-02-11T15:43:53.298Z,9.60
2023-02-11T15:46:37.526Z,9.60
2023-02-11T15:49:19.250Z,9.50
2023-02-11T15:51:52.520Z,9.50
2023-02-11T15:54:29.429Z,9.40
2023-02-11T15:57:07.547Z,9.30
2023-02-11T15:59:45.486Z,9.20
2023-02-11T16:02:22.242Z,9.20
2023-02-11T16:04:57.299Z,9.10
2023-02-11T16:07:49.866Z,9.10
2023-02-11T16:10:23.553Z,9.10
2023-02-11T16:13:07.372Z,9.00
2023-02-11T16:15:47.410Z,8.90
2023-02-11T16:19:04.826Z,8.80
2023-02-11T16:21:45.362Z,8.70
2023-02-11T16:24:22.445Z,8.70
2023-02-11T16:26:57.834Z,8.60
2023-02-11T16:29:32.279Z,8.60
2023-02-11T16:32:21.680Z,8.40
2023-02-11T16:34:58.870Z,8.20
2023-02-11T16:37:31.623Z,8.10
2023-02-11T16:40:03.695Z,7.90
2023-02-11T16:42:35.666Z,7.90
2023-02-11T16:45:07.898Z,7.90
2023-02-11T16:47:42.596Z,7.80
2023-02-11T16:50:23.816Z,7.90
2023-02-11T16:52:55.723Z,7.90
2023-02-11T16:55:28.513Z,7.90
2023-02-11T16:58:00.902Z,7.70
2023-02-11T17:00:32.986Z,7.60
2023-02-11T17:03:14.774Z,7.60
2023-02-11T17:05:55.322Z,7.50
2023-02-11T17:08:27.746Z,7.50
2023-02-11T17:10:59.806Z,7.30
2023-02-11T17:13:36.830Z,7.00
2023-02-11T17:16:21.051Z,6.90
2023-02-11T17:18:53.564Z,6.60
2023-02-11T17:21:29.506Z,6.40
2023-02-11T17:24:02.093Z,6.40
2023-02-11T17:26:36.100Z,6.30
2023-02-11T17:29:09.829Z,6.30
2023-02-11T17:31:41.934Z,6.20
2023-02-11T17:34:14.216Z,6.20
2023-02-11T17:36:46.196Z,6.20
2023-02-11T17:39:19.274Z,6.20
2023-02-11T17:41:51.263Z,6.20
2023-02-11T17:44:23.069Z,6.20
2023-02-11T17:46:54.930Z,6.10
2023-02-11T17:49:27.608Z,6.00
2023-02-11T17:51:59.665Z,5.90
2023-02-11T17:54:31.616Z,5.80
2023-02-11T17:57:03.591Z,5.60
2023-02-11T17:59:35.578Z,5.40
2023-02-11T18:02:12.011Z,5.20
2023-02-11T18:04:43.891Z,5.20
2023-02-11T18:07:15.837Z,5.10
2023-02-11T18:09:47.718Z,5.00
2023-02-11T18:12:26.322Z,4.90
2023-02-11T18:14:58.792Z,4.80
2023-02-11T18:17:33.256Z,4.70
2023-02-11T18:20:05.955Z,4.70
2023-02-11T18:22:40.187Z,4.80
2023-02-11T18:25:15.311Z,4.80
2023-02-11T18:27:47.317Z,4.90
2023-02-11T18:30:19.945Z,4.90
2023-02-11T18:32:56.296Z,4.90
2023-02-11T18:35:28.228Z,4.80
2023-02-11T18:38:00.205Z,4.60
2023-02-11T18:40:32.183Z,4.60
2023-02-11T18:43:07.429Z,4.50
2023-02-11T18:45:46.542Z,4.50
2023-02-11T18:48:19.017Z,4.50
2023-02-11T18:50:50.881Z,4.40
2023-02-11T18:53:23.064Z,4.40
2023-02-11T18:55:55.377Z,4.50
2023-02-11T18:58:27.385Z,4.50
2023-02-11T19:00:59.475Z,4.50
2023-02-11T19:03:31.377Z,4.40
2023-02-11T19:06:03.266Z,4.40
2023-02-11T19:08:35.213Z,4.30
2023-02-11T19:11:07.414Z,4.20
2023-02-11T19:13:39.493Z,4.30
2023-02-11T19:16:14.002Z,4.30
2023-02-11T19:18:46.171Z,4.40
2023-02-11T19:21:18.309Z,4.30
2023-02-11T19:23:50.414Z,4.20
2023-02-11T19:26:26.322Z,4.10
2023-02-11T19:28:59.007Z,4.00
2023-02-11T19:31:32.357Z,4.00
2023-02-11T19:34:04.765Z,3.90
2023-02-11T19:36:36.976Z,3.80
2023-02-11T19:39:10.136Z,3.70
2023-02-11T19:41:42.575Z,3.70
2023-02-11T19:44:19.090Z,3.60
2023-02-11T19:46:53.360Z,3.60
2023-02-11T19:49:26.449Z,3.50
2023-02-11T19:51:58.430Z,3.50
2023-02-11T19:54:30.399Z,3.50
2023-02-11T19:57:02.294Z,3.40
2023-02-11T19:59:34.168Z,3.40
2023-02-11T20:02:06.001Z,3.50
2023-02-11T20:04:40.917Z,3.60
2023-02-11T20:07:12.810Z,3.60
2023-02-11T20:09:44.903Z,3.60
2023-02-11T20:12:19.601Z,3.60
2023-02-11T20:14:51.423Z,3.60
2023-02-11T20:17:23.482Z,3.60
2023-02-11T20:19:57.276Z,3.50
2023-02-11T20:22:32.593Z,3.40
2023-02-11T20:25:05.091Z,3.40
2023-02-11T20:27:37.030Z,3.40
2023-02-11T20:30:09.826Z,3.50
2023-02-11T20:32:41.853Z,3.50
2023-02-11T20:35:14.044Z,3.40
2023-02-11T20:37:45.960Z,3.40
2023-02-11T20:40:20.957Z,3.20
2023-02-11T20:42:53.712Z,3.20
2023-02-11T20:45:25.630Z,3.20
2023-02-11T20:47:57.814Z,3.10
2023-02-11T20:50:29.889Z,3.10
2023-02-11T20:53:01.916Z,3.10
2023-02-11T20:55:38.070Z,3.10
2023-02-11T20:58:09.979Z,3.10
2023-02-11T21:00:41.890Z,3.20
2023-02-11T21:03:14.027Z,3.20
2023-02-11T21:05:45.968Z,3.30
2023-02-11T21:08:20.291Z,3.30
2023-02-11T21:10:52.423Z,3.40
2023-02-11T21:13:24.780Z,3.20
2023-02-11T21:15:57.326Z,3.20
2023-02-11T21:18:29.651Z,3.10
2023-02-11T21:21:06.933Z,3.00
2023-02-11T21:23:40.349Z,3.00
2023-02-11T21:26:18.953Z,3.00
2023-02-11T21:28:52.074Z,3.00
2023-02-11T21:31:29.717Z,3.00
2023-02-11T21:34:02.366Z,3.10
2023-02-11T21:36:39.322Z,3.00
2023-02-11T21:39:12.330Z,3.00
2023-02-11T21:41:46.541Z,2.90
2023-02-11T21:44:20.210Z,2.90
2023-02-11T21:46:52.210Z,2.90
2023-02-11T21:49:24.180Z,2.90
2023-02-11T21:52:00.660Z,2.90
2023-02-11T21:54:32.951Z,3.00
2023-02-11T21:57:04.858Z,3.00
2023-02-11T21:59:36.858Z,3.00
2023-02-11T22:02:12.878Z,2.90
2023-02-11T22:04:44.850Z,2.90
2023-02-11T22:07:17.027Z,3.00
2023-02-11T22:09:50.363Z,2.90
2023-02-11T22:12:23.197Z,2.90
2023-02-11T22:14:55.066Z,2.80
2023-02-11T22:17:27.135Z,2.80
2023-02-11T22:19:59.811Z,2.90
2023-02-11T22:22:31.770Z,2.90
2023-02-11T22:25:04.413Z,2.90
2023-02-11T22:27:36.427Z,2.90
2023-02-11T22:30:09.611Z,3.00
2023-02-11T22:32:42.575Z,3.10
2023-02-11T22:35:14.674Z,3.00
2023-02-11T22:37:46.627Z,3.00
2023-02-11T22:40:18.678Z,3.00
2023-02-11T22:42:50.636Z,3.00
2023-02-11T22:45:22.489Z,2.90
2023-02-11T22:48:00.541Z,2.90
2023-02-11T22:50:33.952Z,2.90
2023-02-11T22:53:08.380Z,2.90
2023-02-11T22:55:43.179Z,2.80
2023-02-11T22:58:18.877Z,2.70
2023-02-11T23:00:55.396Z,2.70
2023-02-11T23:03:28.287Z,2.70
2023-02-11T23:06:03.772Z,2.70
2023-02-11T23:08:37.654Z,2.70
2023-02-11T23:11:12.343Z,2.70
2023-02-11T23:13:45.676Z,2.70
2023-02-11T23:16:23.514Z,2.80
2023-02-11T23:18:55.470Z,2.70
2023-02-11T23:21:31.808Z,2.60
2023-02-11T23:24:11.148Z,2.50
2023-02-11T23:26:44.161Z,2.50
2023-02-11T23:29:16.198Z,2.60
2023-02-11T23:31:49.843Z,2.60
2023-02-11T23:34:25.541Z,2.60
2023-02-11T23:36:59.238Z,2.60
2023-02-11T23:39:31.121Z,2.50
2023-02-11T23:42:03.314Z,2.50
2023-02-11T23:44:35.236Z,2.50
2023-02-11T23:47:07.222Z,2.40
2023-02-11T23:49:39.089Z,2.40
2023-02-11T23:52:10.978Z,2.30
2023-02-11T23:54:43.426Z,2.30
2023-02-11T23:57:15.792Z,2.30
2023-02-11T23:59:50.963Z,2.30
